createdAt,value
2019-01-21T00:01:10.451Z,-2.10
2019-01-21T00:03:58.264Z,-2.10
2019-01-21T00:06:46.090Z,-2.10
2019-01-21T00:12:27.450Z,-2.10
2019-01-21T00:15:15.272Z,-2.10
2019-01-21T00:18:03.147Z,-2.10
2019-01-21T00:20:51.031Z,-2.10
2019-01-21T00:26:12.982Z,-2.10
2019-01-21T00:29:00.811Z,-2.20
2019-01-21T00:31:29.360Z,-2.20
2019-01-21T00:34:17.197Z,-2.20
2019-01-21T00:37:05.102Z,-2.20
2019-01-21T00:39:33.557Z,-2.20
2019-01-21T00:42:21.462Z,-2.20
2019-01-21T00:45:01.929Z,-2.20
2019-01-21T00:47:42.885Z,-2.20
2019-01-21T00:50:23.428Z,-2.20
2019-01-21T00:52:51.918Z,-2.30
2019-01-21T00:55:39.758Z,-2.30
2019-01-21T00:58:08.299Z,-2.20
2019-01-21T01:00:36.859Z,-2.30
2019-01-21T01:03:24.666Z,-2.30
2019-01-21T01:12:01.094Z,-2.30
2019-01-21T01:14:41.778Z,-2.30
2019-01-21T01:19:35.129Z,-2.30
2019-01-21T01:22:03.694Z,-2.30
2019-01-21T01:24:51.496Z,-2.40
2019-01-21T01:27:39.334Z,-2.40
2019-01-21T01:30:10.874Z,-2.40
2019-01-21T01:32:58.705Z,-2.40
2019-01-21T01:35:46.498Z,-2.40
2019-01-21T01:38:34.522Z,-2.30
2019-01-21T01:41:22.317Z,-2.30
2019-01-21T01:44:10.161Z,-2.30
2019-01-21T01:46:58.058Z,-2.40
2019-01-21T01:49:26.624Z,-2.40
2019-01-21T01:52:14.497Z,-2.40
2019-01-21T01:54:43.131Z,-2.40
2019-01-21T01:57:11.615Z,-2.50
2019-01-21T01:59:40.255Z,-2.50
2019-01-21T02:02:08.791Z,-2.50
2019-01-21T02:04:56.729Z,-2.50
2019-01-21T02:07:44.592Z,-2.50
2019-01-21T02:10:14.728Z,-2.40
2019-01-21T02:12:43.432Z,-2.40
2019-01-21T02:15:31.264Z,-2.40
2019-01-21T02:17:59.908Z,-2.40
2019-01-21T02:20:28.512Z,-2.40
2019-01-21T02:22:58.984Z,-2.40
2019-01-21T02:25:36.414Z,-2.50
2019-01-21T02:28:16.280Z,-2.40
2019-01-21T02:31:23.526Z,-2.50
2019-01-21T02:34:04.796Z,-2.40
2019-01-21T02:36:51.633Z,-2.40
2019-01-21T02:39:58.760Z,-2.50
2019-01-21T02:42:32.960Z,-2.50
2019-01-21T02:45:40.144Z,-2.50
2019-01-21T02:48:48.661Z,-2.50
2019-01-21T02:51:57.539Z,-2.50
2019-01-21T02:55:04.753Z,-2.50
2019-01-21T02:58:13.315Z,-2.30
2019-01-21T03:01:21.969Z,-2.50
2019-01-21T03:04:02.899Z,-2.50
2019-01-21T03:06:43.480Z,-2.60
2019-01-21T03:09:20.797Z,-2.60
2019-01-21T03:12:29.414Z,-2.50
2019-01-21T03:15:24.400Z,-2.50
2019-01-21T03:18:12.199Z,-2.60
2019-01-21T03:20:55.279Z,-2.60
2019-01-21T03:24:02.407Z,-2.60
2019-01-21T03:26:53.513Z,-2.60
2019-01-21T03:29:48.996Z,-2.60
2019-01-21T03:32:36.835Z,-2.60
2019-01-21T03:35:09.379Z,-2.60
2019-01-21T03:38:17.989Z,-2.60
2019-01-21T03:41:26.544Z,-2.60
2019-01-21T03:44:07.192Z,-2.60
2019-01-21T03:47:14.369Z,-2.50
2019-01-21T03:49:48.641Z,-2.50
2019-01-21T03:52:51.758Z,-2.50
2019-01-21T03:55:39.643Z,-2.50
2019-01-21T03:58:47.062Z,-2.50
2019-01-21T04:01:21.289Z,-2.50
2019-01-21T04:04:07.979Z,-2.40
2019-01-21T04:06:39.519Z,-2.40
2019-01-21T04:09:23.011Z,-2.40
2019-01-21T04:12:27.375Z,-2.50
2019-01-21T04:15:22.539Z,-2.50
2019-01-21T04:18:31.076Z,-2.60
2019-01-21T04:21:17.711Z,-2.60
2019-01-21T04:24:24.867Z,-2.50
2019-01-21T04:27:33.398Z,-2.60
2019-01-21T04:30:22.852Z,-2.60
2019-01-21T04:32:57.260Z,-2.70
2019-01-21T04:35:28.891Z,-2.60
2019-01-21T04:38:22.633Z,-2.70
2019-01-21T04:41:06.246Z,-2.60
2019-01-21T04:43:40.750Z,-2.60
2019-01-21T04:46:21.213Z,-2.60
2019-01-21T04:49:11.010Z,-2.60
2019-01-21T04:52:18.396Z,-2.50
2019-01-21T04:55:09.791Z,-2.50
2019-01-21T04:57:49.992Z,-2.60
2019-01-21T05:00:40.810Z,-2.60
2019-01-21T05:03:33.307Z,-2.50
2019-01-21T05:06:40.527Z,-2.50
2019-01-21T05:09:28.538Z,-2.60
2019-01-21T05:12:14.775Z,-2.60
2019-01-21T05:15:01.435Z,-2.60
2019-01-21T05:18:08.974Z,-2.60
2019-01-21T05:21:16.185Z,-2.60
2019-01-21T05:24:23.389Z,-2.60
2019-01-21T05:27:30.520Z,-2.60
2019-01-21T05:30:18.725Z,-2.60
2019-01-21T05:33:27.295Z,-2.60
2019-01-21T05:36:10.964Z,-2.60
2019-01-21T05:39:19.516Z,-2.70
2019-01-21T05:41:51.057Z,-2.70
2019-01-21T05:44:40.246Z,-2.70
2019-01-21T05:47:32.534Z,-2.70
2019-01-21T05:50:34.152Z,-2.70
2019-01-21T05:53:17.760Z,-2.80
2019-01-21T05:56:24.984Z,-2.80
2019-01-21T05:59:32.209Z,-2.80
2019-01-21T06:02:23.330Z,-2.70
2019-01-21T06:05:04.001Z,-2.70
2019-01-21T06:07:44.902Z,-2.70
2019-01-21T06:10:16.435Z,-2.70
2019-01-21T06:13:23.587Z,-2.70
2019-01-21T06:15:55.128Z,-2.60
2019-01-21T06:18:38.461Z,-2.70
2019-01-21T06:21:26.622Z,-2.70
2019-01-21T06:24:06.682Z,-2.60
2019-01-21T06:27:13.814Z,-2.70
2019-01-21T06:30:14.003Z,-2.70
2019-01-21T06:33:04.374Z,-2.70
2019-01-21T06:35:47.818Z,-2.70
2019-01-21T06:38:54.995Z,-2.70
2019-01-21T06:41:35.449Z,-2.70
2019-01-21T06:44:42.605Z,-2.70
2019-01-21T06:47:26.138Z,-2.70
2019-01-21T06:50:33.308Z,-2.70
2019-01-21T06:53:40.443Z,-2.70
2019-01-21T06:56:17.562Z,-2.60
2019-01-21T06:58:51.980Z,-2.70
2019-01-21T07:02:00.538Z,-2.70
2019-01-21T07:05:07.645Z,-2.70
2019-01-21T07:08:14.805Z,-2.70
2019-01-21T07:11:23.333Z,-2.70
2019-01-21T07:14:11.385Z,-2.70
2019-01-21T07:16:48.777Z,-2.70
2019-01-21T07:19:57.358Z,-2.60
2019-01-21T07:23:05.888Z,-2.70
2019-01-21T07:25:59.502Z,-2.70
2019-01-21T07:28:33.742Z,-2.70
2019-01-21T07:31:41.097Z,-2.70
2019-01-21T07:34:48.216Z,-2.70
2019-01-21T07:37:56.772Z,-2.70
2019-01-21T07:41:03.884Z,-2.70
2019-01-21T07:43:44.007Z,-2.60
2019-01-21T07:46:21.064Z,-2.70
2019-01-21T07:49:04.479Z,-2.70
2019-01-21T07:51:52.262Z,-2.70
2019-01-21T07:54:35.017Z,-2.70
2019-01-21T07:57:31.374Z,-2.70
2019-01-21T08:00:08.865Z,-2.70
2019-01-21T08:02:52.084Z,-2.60
2019-01-21T08:05:23.648Z,-2.60
2019-01-21T08:08:32.566Z,-2.60
2019-01-21T08:11:13.415Z,-2.60
2019-01-21T08:13:54.011Z,-2.60
2019-01-21T08:16:31.468Z,-2.50
2019-01-21T08:23:14.879Z,-2.50
2019-01-21T08:26:23.405Z,-2.40
2019-01-21T08:29:03.642Z,-2.40
2019-01-21T08:32:10.799Z,-2.40
2019-01-21T08:35:19.391Z,-2.40
2019-01-21T08:38:26.591Z,-2.40
2019-01-21T08:41:27.743Z,-2.40
2019-01-21T08:44:34.999Z,-2.30
2019-01-21T08:47:24.686Z,-2.30
2019-01-21T08:50:31.829Z,-2.20
2019-01-21T08:53:06.002Z,-2.20
2019-01-21T08:55:48.657Z,-2.10
2019-01-21T08:58:35.069Z,-2.10
2019-01-21T09:01:43.597Z,-2.00
2019-01-21T09:04:50.757Z,-2.00
2019-01-21T09:07:31.101Z,-2.00
2019-01-21T09:10:11.572Z,-1.90
2019-01-21T09:12:52.158Z,-1.90
2019-01-21T09:15:32.619Z,-1.90
2019-01-21T09:18:40.276Z,-1.90
2019-01-21T09:21:48.856Z,-1.90
2019-01-21T09:24:20.455Z,-1.90
2019-01-21T09:27:08.309Z,-1.80
2019-01-21T09:30:15.898Z,-1.80
2019-01-21T09:33:23.245Z,-1.70
2019-01-21T09:36:17.478Z,-1.70
2019-01-21T09:39:07.561Z,-1.60
2019-01-21T09:41:39.454Z,-1.60
2019-01-21T09:44:11.074Z,-1.60
2019-01-21T09:46:44.234Z,-1.60
2019-01-21T09:49:11.677Z,-1.60
2019-01-21T09:51:44.964Z,-1.60
2019-01-21T09:54:13.559Z,-1.60
2019-01-21T09:56:42.266Z,-1.50
2019-01-21T09:59:10.919Z,-1.50
2019-01-21T10:01:40.379Z,-1.40
2019-01-21T10:04:09.125Z,-1.40
2019-01-21T10:06:43.359Z,-1.40
2019-01-21T10:09:35.715Z,-1.40
2019-01-21T10:12:37.542Z,-1.40
2019-01-21T10:15:21.585Z,-1.40
2019-01-21T10:18:05.034Z,-1.30
2019-01-21T10:20:36.615Z,-1.30
2019-01-21T10:23:10.859Z,-1.30
2019-01-21T10:25:42.470Z,-1.30
2019-01-21T10:28:17.078Z,-1.20
2019-01-21T10:31:19.242Z,-1.30
2019-01-21T10:33:59.436Z,-1.10
2019-01-21T10:36:36.735Z,-1.00
2019-01-21T10:39:26.207Z,-1.00
2019-01-21T10:42:16.874Z,-1.00
2019-01-21T10:44:48.492Z,-0.90
2019-01-21T10:47:23.116Z,-0.90
2019-01-21T10:50:21.595Z,-0.90
2019-01-21T10:52:59.057Z,-0.90
2019-01-21T10:55:55.492Z,-0.80
2019-01-21T10:58:38.920Z,-0.70
2019-01-21T11:01:39.115Z,-0.70
2019-01-21T11:04:31.705Z,-0.70
2019-01-21T11:07:08.676Z,-0.70
2019-01-21T11:09:40.230Z,-0.70
2019-01-21T11:12:14.788Z,-0.70
2019-01-21T11:14:52.620Z,-0.80
2019-01-21T11:17:48.542Z,-0.80
2019-01-21T11:20:38.116Z,-0.90
2019-01-21T11:23:27.030Z,-0.90
2019-01-21T11:26:18.034Z,-0.80
2019-01-21T11:28:52.573Z,-0.80
2019-01-21T11:31:36.412Z,-0.70
2019-01-21T11:34:25.146Z,-0.70
2019-01-21T11:37:11.831Z,-0.80
2019-01-21T11:40:06.005Z,-0.80
2019-01-21T11:42:53.798Z,-0.60
2019-01-21T11:45:40.634Z,-0.70
2019-01-21T11:48:37.872Z,-0.70
2019-01-21T11:51:24.648Z,-0.70
2019-01-21T11:54:05.201Z,-0.60
2019-01-21T11:56:56.137Z,-0.60
2019-01-21T11:59:30.631Z,-0.60
2019-01-21T12:02:05.085Z,-0.70
2019-01-21T12:04:42.073Z,-0.80
2019-01-21T12:07:30.194Z,-0.80
2019-01-21T12:10:34.801Z,-0.80
2019-01-21T12:13:18.065Z,-0.80
2019-01-21T12:16:23.677Z,-0.80
2019-01-21T12:19:01.003Z,-0.80
2019-01-21T12:21:40.684Z,-0.70
2019-01-21T12:24:12.243Z,-0.60
2019-01-21T12:26:49.941Z,-0.50
2019-01-21T12:29:43.437Z,-0.50
2019-01-21T12:32:20.748Z,-0.40
2019-01-21T12:34:55.319Z,-0.40
2019-01-21T12:37:26.862Z,-0.40
2019-01-21T12:40:00.948Z,-0.40
2019-01-21T12:42:41.379Z,-0.30
2019-01-21T12:45:15.861Z,-0.30
2019-01-21T12:47:50.000Z,-0.30
2019-01-21T12:50:39.152Z,-0.30
2019-01-21T12:53:37.805Z,-0.20
2019-01-21T12:56:12.071Z,-0.20
2019-01-21T12:58:55.522Z,-0.20
2019-01-21T13:01:39.305Z,-0.30
2019-01-21T13:04:10.842Z,-0.30
2019-01-21T13:06:51.195Z,-0.30
2019-01-21T13:09:43.952Z,-0.40
2019-01-21T13:12:45.704Z,-0.50
2019-01-21T13:15:23.051Z,-0.60
2019-01-21T13:18:00.295Z,-0.70
2019-01-21T13:20:34.312Z,-0.70
2019-01-21T13:23:11.915Z,-0.60
2019-01-21T13:26:07.241Z,-0.50
2019-01-21T13:28:38.897Z,-0.50
2019-01-21T13:31:19.275Z,-0.50
2019-01-21T13:34:19.340Z,-0.50
2019-01-21T13:37:12.146Z,-0.50
2019-01-21T13:40:12.232Z,-0.40
2019-01-21T13:43:17.260Z,-0.40
2019-01-21T13:45:57.818Z,-0.40
2019-01-21T13:48:35.428Z,-0.40
2019-01-21T13:51:21.624Z,-0.40
2019-01-21T13:53:55.800Z,-0.40
2019-01-21T13:56:48.723Z,-0.40
2019-01-21T13:59:28.945Z,-0.40
2019-01-21T14:02:03.013Z,-0.40
2019-01-21T14:04:37.072Z,-0.40
2019-01-21T14:07:29.595Z,-0.40
2019-01-21T14:10:10.199Z,-0.40
2019-01-21T14:12:41.761Z,-0.40
2019-01-21T14:15:19.030Z,-0.40
2019-01-21T14:18:05.979Z,-0.40
2019-01-21T14:20:46.479Z,-0.50
2019-01-21T14:23:18.081Z,-0.60
2019-01-21T14:26:10.442Z,-0.60
2019-01-21T14:28:57.212Z,-0.60
2019-01-21T14:31:49.642Z,-0.70
2019-01-21T14:34:27.472Z,-0.60
2019-01-21T14:36:59.051Z,-0.60
2019-01-21T14:39:33.518Z,-0.70
2019-01-21T14:42:23.340Z,-0.70
2019-01-21T14:45:23.607Z,-0.70
2019-01-21T14:48:15.174Z,-0.70
2019-01-21T14:50:50.572Z,-0.70
2019-01-21T14:53:31.052Z,-0.70
2019-01-21T14:56:08.603Z,-0.70
2019-01-21T14:59:10.269Z,-0.70
2019-01-21T15:01:50.864Z,-0.70
2019-01-21T15:04:25.463Z,-0.70
2019-01-21T15:07:03.672Z,-0.70
2019-01-21T15:09:44.156Z,-0.70
2019-01-21T15:12:30.588Z,-0.70
2019-01-21T15:15:21.726Z,-0.70
2019-01-21T15:17:59.024Z,-0.70
2019-01-21T15:20:33.615Z,-0.70
2019-01-21T15:23:25.985Z,-0.70
2019-01-21T15:26:15.662Z,-0.70
2019-01-21T15:29:14.687Z,0.10
2019-01-21T15:31:58.166Z,0.20
2019-01-21T15:34:57.393Z,0.00
2019-01-21T15:37:43.929Z,-0.10
2019-01-21T15:40:24.519Z,-0.20
2019-01-21T15:43:08.247Z,-0.30
2019-01-21T15:45:39.940Z,-0.30
2019-01-21T15:48:32.147Z,-0.40
2019-01-21T15:51:05.177Z,-0.40
2019-01-21T15:53:42.555Z,-0.50
2019-01-21T15:56:19.913Z,-0.50
2019-01-21T15:58:51.455Z,-0.50
2019-01-21T16:01:44.186Z,-0.50
2019-01-21T16:04:34.582Z,-0.50
2019-01-21T16:07:06.268Z,-0.50
2019-01-21T16:10:05.227Z,-0.50
2019-01-21T16:12:42.726Z,-0.60
2019-01-21T16:15:33.739Z,-0.60
2019-01-21T16:18:29.046Z,-0.60
2019-01-21T16:21:12.454Z,-0.70
2019-01-21T16:23:53.816Z,-0.70
2019-01-21T16:26:22.927Z,0.40
2019-01-21T16:28:54.468Z,0.20
2019-01-21T16:31:28.720Z,0.10
2019-01-21T16:34:24.306Z,-0.10
2019-01-21T16:37:04.370Z,-0.20
2019-01-21T16:40:04.235Z,-0.40
2019-01-21T16:42:31.647Z,-0.50
2019-01-21T16:45:00.268Z,-0.50
2019-01-21T16:47:28.874Z,-0.60
2019-01-21T16:49:57.510Z,-0.70
2019-01-21T16:52:26.006Z,-0.70
2019-01-21T16:54:54.560Z,-0.70
2019-01-21T16:57:23.102Z,-0.80
2019-01-21T16:59:51.572Z,-0.80
2019-01-21T17:02:20.337Z,-0.80
2019-01-21T17:04:48.818Z,-0.80
2019-01-21T17:07:17.364Z,-0.80
2019-01-21T17:09:45.928Z,-0.80
2019-01-21T17:12:14.435Z,-0.80
2019-01-21T17:14:42.946Z,-0.90
2019-01-21T17:19:40.117Z,-0.90
2019-01-21T17:22:08.617Z,-0.90
2019-01-21T17:24:37.144Z,-1.00
2019-01-21T17:27:06.049Z,-1.00
2019-01-21T17:29:34.633Z,-1.00
2019-01-21T17:32:03.943Z,-1.00
2019-01-21T17:34:32.407Z,-1.00
2019-01-21T17:37:01.033Z,-1.10
2019-01-21T17:39:29.629Z,-1.10
2019-01-21T17:41:58.104Z,-1.10
2019-01-21T17:44:26.670Z,-1.10
2019-01-21T17:46:55.301Z,-1.10
2019-01-21T17:49:23.829Z,-1.10
2019-01-21T17:51:52.397Z,-1.10
2019-01-21T17:54:20.905Z,-1.10
2019-01-21T17:56:49.466Z,-1.20
2019-01-21T17:59:17.990Z,-1.20
2019-01-21T18:01:46.513Z,-1.20
2019-01-21T18:04:15.202Z,-1.20
2019-01-21T18:06:43.680Z,-1.20
2019-01-21T18:09:12.412Z,-1.20
2019-01-21T18:11:41.388Z,-1.20
2019-01-21T18:14:10.116Z,-1.20
2019-01-21T18:16:38.762Z,-1.20
2019-01-21T18:19:07.457Z,-1.20
2019-01-21T18:21:40.139Z,-1.20
2019-01-21T18:24:06.229Z,-1.30
2019-01-21T18:26:34.711Z,-1.30
2019-01-21T18:29:03.372Z,-1.30
2019-01-21T18:31:31.880Z,-1.30
2019-01-21T18:34:00.414Z,-1.30
2019-01-21T18:36:28.934Z,-1.30
2019-01-21T18:38:57.491Z,-1.30
2019-01-21T18:41:26.053Z,-1.30
2019-01-21T18:43:54.632Z,-1.30
2019-01-21T18:46:23.239Z,-1.30
2019-01-21T18:48:51.713Z,-1.30
2019-01-21T18:51:20.254Z,-1.30
2019-01-21T18:53:48.883Z,-1.30
2019-01-21T18:56:17.346Z,-1.30
2019-01-21T18:58:45.854Z,-1.30
2019-01-21T19:01:14.340Z,-1.30
2019-01-21T19:03:42.935Z,-1.30
2019-01-21T19:06:11.504Z,-1.30
2019-01-21T19:08:40.008Z,-1.30
2019-01-21T19:11:08.660Z,-1.30
2019-01-21T19:13:37.174Z,-1.40
2019-01-21T19:16:05.777Z,-1.40
2019-01-21T19:18:34.252Z,-1.40
2019-01-21T19:21:02.816Z,-1.40
2019-01-21T19:23:31.278Z,-1.40
2019-01-21T19:25:59.799Z,-1.50
2019-01-21T19:28:28.349Z,-1.50
2019-01-21T19:30:56.828Z,-1.50
2019-01-21T19:33:25.330Z,-1.50
2019-01-21T19:35:53.958Z,-1.50
2019-01-21T19:38:22.463Z,-1.50
2019-01-21T19:40:51.013Z,-1.50
2019-01-21T19:43:19.490Z,-1.50
2019-01-21T19:45:48.062Z,-1.50
2019-01-21T19:48:16.529Z,-1.50
2019-01-21T19:50:45.054Z,-1.40
2019-01-21T19:53:13.685Z,-1.50
2019-01-21T19:55:42.620Z,-1.50
2019-01-21T19:58:11.379Z,-1.50
2019-01-21T20:00:39.983Z,-1.50
2019-01-21T20:03:27.825Z,-1.50
2019-01-21T20:05:56.283Z,-1.50
2019-01-21T20:08:24.868Z,-1.50
2019-01-21T20:10:53.616Z,-1.50
2019-01-21T20:13:22.515Z,-1.50
2019-01-21T20:15:51.008Z,-1.50
2019-01-21T20:18:19.491Z,-1.50
2019-01-21T20:20:47.999Z,-1.50
2019-01-21T20:23:16.567Z,-1.60
2019-01-21T20:25:45.118Z,-1.50
2019-01-21T20:28:13.610Z,-1.50
2019-01-21T20:30:42.176Z,-1.50
2019-01-21T20:33:10.656Z,-1.50
2019-01-21T20:35:39.176Z,-1.50
2019-01-21T20:38:07.845Z,-1.50
2019-01-21T20:40:36.374Z,-1.50
2019-01-21T20:43:04.906Z,-1.50
2019-01-21T20:45:33.369Z,-1.50
2019-01-21T20:48:01.904Z,-1.50
2019-01-21T20:50:31.763Z,-1.50
2019-01-21T20:53:00.320Z,-1.50
2019-01-21T20:55:29.119Z,-1.50
2019-01-21T20:57:57.899Z,-1.50
2019-01-21T21:00:28.783Z,-1.50
2019-01-21T21:02:57.692Z,-1.50
2019-01-21T21:05:26.634Z,-1.50
2019-01-21T21:07:55.357Z,-1.50
2019-01-21T21:10:24.429Z,-1.50
2019-01-21T21:12:53.265Z,-1.50
2019-01-21T21:15:27.205Z,-1.50
2019-01-21T21:17:55.736Z,-1.50
2019-01-21T21:20:24.286Z,-1.60
2019-01-21T21:22:52.822Z,-1.60
2019-01-21T21:25:21.628Z,-1.60
2019-01-21T21:27:50.205Z,-1.60
2019-01-21T21:30:31.688Z,-1.50
2019-01-21T21:33:00.304Z,-1.60
2019-01-21T21:35:29.068Z,-1.60
2019-01-21T21:37:57.758Z,-1.60
2019-01-21T21:40:26.383Z,-1.60
2019-01-21T21:42:55.036Z,-1.60
2019-01-21T21:45:23.704Z,-1.70
2019-01-21T21:47:52.630Z,-1.70
2019-01-21T21:50:24.490Z,-1.70
2019-01-21T21:52:53.024Z,-1.70
2019-01-21T21:55:21.576Z,-1.60
2019-01-21T21:57:50.214Z,-1.60
2019-01-21T22:00:24.340Z,-1.60
2019-01-21T22:02:52.994Z,-1.60
2019-01-21T22:05:21.853Z,-1.60
2019-01-21T22:07:50.443Z,-1.60
2019-01-21T22:10:24.155Z,-1.60
2019-01-21T22:12:53.064Z,-1.60
2019-01-21T22:15:23.040Z,-1.60
2019-01-21T22:17:51.943Z,-1.70
2019-01-21T22:20:22.244Z,-1.60
2019-01-21T22:22:50.863Z,-1.60
2019-01-21T22:25:19.770Z,-1.60
2019-01-21T22:27:48.586Z,-1.70
2019-01-21T22:30:19.741Z,-1.60
2019-01-21T22:32:48.317Z,-1.70
2019-01-21T22:35:17.065Z,-1.70
2019-01-21T22:37:46.289Z,-1.70
2019-01-21T22:40:16.863Z,-1.70
2019-01-21T22:42:45.583Z,-1.70
2019-01-21T22:45:15.778Z,-1.70
2019-01-21T22:47:44.495Z,-1.70
2019-01-21T22:50:16.001Z,-1.70
2019-01-21T22:52:44.548Z,-1.70
2019-01-21T22:55:14.967Z,-1.70
2019-01-21T22:57:43.566Z,-1.70
2019-01-21T23:00:17.730Z,-1.70
2019-01-21T23:02:46.266Z,-1.70
2019-01-21T23:05:15.077Z,-1.80
2019-01-21T23:07:43.657Z,-1.80
2019-01-21T23:10:12.348Z,-1.80
2019-01-21T23:12:40.905Z,-1.80
2019-01-21T23:15:09.827Z,-1.80
2019-01-21T23:17:38.371Z,-1.80
2019-01-21T23:20:10.182Z,-1.80
2019-01-21T23:22:38.743Z,-1.80
2019-01-21T23:25:07.871Z,-1.80
2019-01-21T23:27:36.337Z,-1.80
2019-01-21T23:30:07.939Z,-1.80
2019-01-21T23:32:36.501Z,-1.80
2019-01-21T23:35:05.689Z,-1.80
2019-01-21T23:37:34.523Z,-1.70
2019-01-21T23:40:03.123Z,-1.70
2019-01-21T23:42:31.667Z,-1.80
2019-01-21T23:45:00.221Z,-1.80
2019-01-21T23:47:28.745Z,-1.80
2019-01-21T23:49:57.246Z,-1.80
2019-01-21T23:52:25.774Z,-1.80
2019-01-21T23:54:54.646Z,-1.80
2019-01-21T23:57:23.184Z,-1.90
2019-01-21T23:59:51.716Z,-1.90
